Ardmore, Maryland
Current Conditions -  °F | °C
As of 5:50 PM on Thursday 23 Oct 2014 (Local Time) from KCGS Reporting Station
Overcast Overcast  
Wind Chill: 63°   Ceiling: 6000
Heat Index: 63°   Visibility: 10mi
Dew Point: 45°   Wind: 8mph
Humidity: 52%   Direction: 320°NW
Pressure: 29.84"   Gusts: 20mph
Location:  38.9183°N, 76.8721°W
Report Text: KCGS 232150Z AUTO 32007G17KT 10SM BKN060 OVC110 17/07 A2984 RMK AO1
Loading
Personal Weather Stations






























Interactive Weather Map New forecast layout! Learn more

10-Day Weather Forecast

Advertisements
Track Severe Weather on mobile